Time;durP1;ratioP1;P1;durP2;ratioP2;P2;SDS_P1;SDS_P2;PMS_P1;PMS_P2;Temp;Humidity;BMP_temperature;BMP_pressure;BME280_temperature;BME280_humidity;BME280_pressure;Samples;Min_cycle;Max_cycle;Signal;HPM_P1;HPM_P2
2023/03/15 00:01:15;;;;;;;2.45;1.20;;;7.30;65.30;;;;;;5058922;28;20045;-61
2023/03/15 00:03:42;;;;;;;1.98;1.10;;;7.30;65.60;;;;;;5067410;28;20028;-62
2023/03/15 00:06:07;;;;;;;3.28;1.35;;;7.40;65.20;;;;;;5060157;28;20059;-62
2023/03/15 00:08:33;;;;;;;1.33;1.00;;;7.40;65.10;;;;;;5059332;28;20025;-63
2023/03/15 00:10:59;;;;;;;3.13;1.25;;;7.40;65.20;;;;;;5060505;28;20030;-62
2023/03/15 00:13:25;;;;;;;6.20;2.25;;;7.40;64.90;;;;;;5068322;28;20432;-63
2023/03/15 00:15:55;;;;;;;9.60;2.38;;;7.40;64.40;;;;;;5067391;28;20025;-63
2023/03/15 00:18:20;;;;;;;4.80;2.00;;;7.40;64.10;;;;;;5061768;28;20039;-62
2023/03/15 00:20:47;;;;;;;6.72;1.83;;;7.40;64.20;;;;;;5060775;28;20116;-62
2023/03/15 00:23:13;;;;;;;4.40;1.63;;;7.30;63.90;;;;;;5065534;28;20014;-63
2023/03/15 00:25:39;;;;;;;2.03;1.45;;;7.30;64.80;;;;;;5061095;28;20043;-62
2023/03/15 00:28:05;;;;;;;2.22;1.20;;;7.20;65.20;;;;;;5066534;28;20479;-62
2023/03/15 00:30:31;;;;;;;1.52;1.10;;;7.20;64.90;;;;;;5065802;28;20052;-62
2023/03/15 00:32:57;;;;;;;1.85;1.00;;;7.10;65.20;;;;;;5062206;28;20057;-62
2023/03/15 00:35:23;;;;;;;0.93;0.90;;;7.10;65.10;;;;;;5065775;28;20090;-62
2023/03/15 00:37:53;;;;;;;1.10;1.00;;;7.00;65.00;;;;;;5061673;28;20017;-62
2023/03/15 00:40:19;;;;;;;5.47;0.70;;;7.00;64.00;;;;;;5053486;28;20028;-61
2023/03/15 00:42:48;;;;;;;0.70;0.70;;;6.90;63.60;;;;;;5059408;28;20051;-61
2023/03/15 00:45:18;;;;;;;0.60;0.60;;;6.70;63.80;;;;;;5069723;28;20024;-61
2023/03/15 00:47:43;;;;;;;0.60;0.60;;;6.60;63.80;;;;;;5064509;28;20506;-62
2023/03/15 00:50:10;;;;;;;0.60;0.60;;;6.40;63.70;;;;;;5062083;28;20025;-61
2023/03/15 00:52:37;;;;;;;0.60;0.60;;;6.30;63.80;;;;;;5066344;28;20092;-61
2023/03/15 00:55:04;;;;;;;1.05;0.70;;;6.20;63.90;;;;;;5058553;28;20029;-61
2023/03/15 00:57:33;;;;;;;0.70;0.70;;;6.10;64.50;;;;;;5064053;28;20032;-62
2023/03/15 00:59:58;;;;;;;1.80;0.70;;;6.00;64.40;;;;;;5059200;28;20032;-61
2023/03/15 01:02:24;;;;;;;1.23;0.70;;;5.90;64.40;;;;;;5067950;28;22870;-62
2023/03/15 01:04:50;;;;;;;2.33;0.68;;;5.90;65.00;;;;;;5063592;28;20021;-62
2023/03/15 01:07:16;;;;;;;0.75;0.70;;;5.80;64.40;;;;;;5068746;28;20036;-61
2023/03/15 01:09:43;;;;;;;0.88;0.70;;;5.70;65.00;;;;;;5060505;28;20017;-62
2023/03/15 01:12:09;;;;;;;2.92;0.77;;;5.60;64.40;;;;;;5065050;28;20032;-61
2023/03/15 01:14:36;;;;;;;1.48;0.90;;;5.60;64.50;;;;;;5064245;28;20028;-61
2023/03/15 01:17:02;;;;;;;0.68;0.68;;;5.50;64.60;;;;;;5063677;28;20048;-62
2023/03/15 01:19:27;;;;;;;0.70;0.70;;;5.40;64.30;;;;;;5064303;28;20037;-61
2023/03/15 01:21:53;;;;;;;2.05;0.90;;;5.40;64.70;;;;;;5069486;28;20049;-62
2023/03/15 01:24:19;;;;;;;1.83;0.90;;;5.30;64.70;;;;;;5061742;28;20028;-61
2023/03/15 01:26:44;;;;;;;3.00;0.70;;;5.30;64.80;;;;;;5070826;28;20064;-61
2023/03/15 01:29:12;;;;;;;1.27;0.80;;;5.20;65.00;;;;;;5061749;28;20675;-61
2023/03/15 01:31:38;;;;;;;1.58;0.80;;;5.10;65.20;;;;;;5072904;28;20027;-62
2023/03/15 01:34:03;;;;;;;0.90;0.70;;;5.10;65.40;;;;;;5068727;28;20065;-62
2023/03/15 01:36:29;;;;;;;0.80;0.80;;;5.00;64.90;;;;;;5062390;28;20028;-62
2023/03/15 01:38:54;;;;;;;1.65;1.00;;;4.90;64.70;;;;;;5061099;28;20032;-62
2023/03/15 01:41:22;;;;;;;1.88;0.80;;;4.90;64.90;;;;;;5067223;28;20041;-62
2023/03/15 01:43:47;;;;;;;0.70;0.70;;;4.80;64.90;;;;;;5064107;28;20033;-62
2023/03/15 01:46:24;;;;;;;0.73;0.73;;;4.80;65.20;;;;;;5063924;28;20021;-61
2023/03/15 01:49:01;;;;;;;1.70;0.90;;;4.80;65.50;;;;;;5062378;28;20032;-63
2023/03/15 01:51:36;;;;;;;1.85;0.90;;;4.80;65.10;;;;;;5060501;28;20029;-60
2023/03/15 01:54:18;;;;;;;1.90;1.05;;;4.70;65.50;;;;;;5063669;28;20029;-61
2023/03/15 01:56:51;;;;;;;3.88;0.90;;;4.70;65.70;;;;;;5065792;28;20107;-62
2023/03/15 01:59:24;;;;;;;1.70;0.95;;;4.70;65.20;;;;;;5056839;28;20032;-62
2023/03/15 02:01:53;;;;;;;1.67;0.82;;;4.70;65.80;;;;;;5058560;28;20108;-62
2023/03/15 02:04:24;;;;;;;2.58;1.00;;;4.70;65.40;;;;;;5060597;28;20036;-62
2023/03/15 02:06:58;;;;;;;3.58;0.90;;;4.60;65.60;;;;;;5061754;28;20067;-62
2023/03/15 02:09:36;;;;;;;1.25;1.00;;;4.60;65.70;;;;;;5068559;28;20033;-61
2023/03/15 02:12:04;;;;;;;4.38;1.10;;;4.60;66.00;;;;;;5063232;28;20029;-61
2023/03/15 02:14:31;;;;;;;2.47;1.08;;;4.60;65.50;;;;;;5062255;28;20025;-62
2023/03/15 02:16:56;;;;;;;2.22;1.00;;;4.60;66.30;;;;;;5067552;28;20016;-62
2023/03/15 02:20:03;;;;;;;1.08;0.90;;;4.50;65.70;;;;;;5064334;28;20350;-62
2023/03/15 02:22:41;;;;;;;2.60;1.05;;;4.60;66.00;;;;;;5058470;28;20060;-61
2023/03/15 02:25:36;;;;;;;1.13;1.00;;;4.50;65.20;;;;;;5062154;28;20021;-61
2023/03/15 02:28:04;;;;;;;1.70;0.98;;;4.50;65.80;;;;;;5060018;28;20024;-62
2023/03/15 02:30:30;;;;;;;1.15;1.00;;;4.60;65.70;;;;;;5069353;28;20033;-61
2023/03/15 02:32:58;;;;;;;1.10;1.00;;;4.50;65.60;;;;;;5064365;28;20364;-61
2023/03/15 02:35:30;;;;;;;1.55;1.27;;;4.60;65.70;;;;;;5060551;28;20044;-61
2023/03/15 02:37:56;;;;;;;1.17;1.00;;;4.60;65.90;;;;;;5059870;28;20045;-61
2023/03/15 02:40:26;;;;;;;1.52;1.23;;;4.60;65.50;;;;;;5057419;28;20029;-62
2023/03/15 02:42:56;;;;;;;1.52;1.10;;;4.60;65.30;;;;;;5062562;28;20028;-61
2023/03/15 02:45:22;;;;;;;1.85;1.20;;;4.60;65.30;;;;;;5062519;28;20029;-61
2023/03/15 02:47:49;;;;;;;2.08;1.30;;;4.50;65.30;;;;;;5063308;28;20032;-61
2023/03/15 02:50:15;;;;;;;1.70;1.23;;;4.50;65.30;;;;;;5059812;28;20013;-61
2023/03/15 02:52:41;;;;;;;2.55;1.30;;;4.50;65.70;;;;;;5070230;28;20048;-61
2023/03/15 02:55:07;;;;;;;3.42;1.30;;;4.50;65.60;;;;;;5057996;28;20021;-62
2023/03/15 02:57:33;;;;;;;3.05;1.50;;;4.50;65.60;;;;;;5068576;28;20032;-62
2023/03/15 03:00:05;;;;;;;2.20;1.35;;;4.50;65.80;;;;;;5096104;28;20025;-62
2023/03/15 03:02:31;;;;;;;3.85;1.77;;;4.50;65.80;;;;;;5068160;28;20119;-61
2023/03/15 03:04:57;;;;;;;2.92;1.40;;;4.50;66.20;;;;;;5052669;28;20033;-61
2023/03/15 03:07:22;;;;;;;2.83;1.23;;;4.60;66.00;;;;;;5070392;28;20032;-63
2023/03/15 03:09:48;;;;;;;3.22;1.50;;;4.60;66.30;;;;;;5065036;28;20056;-62
2023/03/15 03:12:14;;;;;;;3.42;1.50;;;4.60;66.30;;;;;;5068147;28;20035;-61
2023/03/15 03:14:42;;;;;;;6.45;1.77;;;4.60;66.40;;;;;;5047734;28;20055;-61
2023/03/15 03:17:07;;;;;;;4.85;1.60;;;4.70;66.00;;;;;;5064999;28;20364;-62
2023/03/15 03:19:33;;;;;;;3.17;1.30;;;4.70;66.20;;;;;;5061832;28;20029;-61
2023/03/15 03:21:58;;;;;;;2.75;1.42;;;4.70;65.90;;;;;;5063110;28;20044;-61
2023/03/15 03:24:25;;;;;;;4.82;1.55;;;4.80;66.10;;;;;;5054729;28;20032;-62
2023/03/15 03:26:51;;;;;;;3.45;1.58;;;4.80;66.00;;;;;;5065954;28;20081;-63
2023/03/15 03:29:16;;;;;;;2.70;1.60;;;4.80;65.80;;;;;;5063233;28;20043;-61
2023/03/15 03:31:44;;;;;;;3.78;1.55;;;4.80;65.90;;;;;;5057809;28;20063;-61
2023/03/15 03:34:14;;;;;;;6.65;1.73;;;4.80;66.40;;;;;;5064858;28;20108;-61
2023/03/15 03:36:40;;;;;;;3.20;1.77;;;4.90;65.40;;;;;;5057380;28;20035;-61
2023/03/15 03:39:06;;;;;;;6.60;2.10;;;4.90;65.40;;;;;;5061753;28;20052;-62
2023/03/15 03:41:31;;;;;;;8.90;2.38;;;4.90;65.60;;;;;;5058106;28;20056;-62
2023/03/15 03:43:57;;;;;;;8.25;2.33;;;4.80;65.50;;;;;;5057007;28;20025;-60
2023/03/15 03:46:22;;;;;;;9.63;2.78;;;4.80;65.20;;;;;;5061683;28;20052;-62
2023/03/15 03:48:48;;;;;;;6.95;2.63;;;4.80;65.50;;;;;;5064522;28;20040;-61
2023/03/15 03:51:14;;;;;;;3.95;2.58;;;4.80;65.70;;;;;;5061970;28;20026;-62
2023/03/15 03:53:39;;;;;;;7.82;3.40;;;4.80;65.70;;;;;;5065842;28;20107;-61
2023/03/15 03:56:06;;;;;;;5.85;2.70;;;4.80;65.50;;;;;;5058926;28;20033;-60
2023/03/15 03:58:32;;;;;;;7.25;3.08;;;4.80;65.60;;;;;;5061903;28;20037;-61
2023/03/15 04:00:58;;;;;;;10.32;3.85;;;4.80;65.60;;;;;;5065400;28;20049;-60
2023/03/15 04:03:26;;;;;;;7.25;3.40;;;4.70;65.80;;;;;;5061674;28;20040;-61
2023/03/15 04:05:56;;;;;;;6.40;3.55;;;4.80;66.10;;;;;;5063448;28;20510;-60
2023/03/15 04:08:23;;;;;;;10.27;4.43;;;4.80;66.10;;;;;;5062494;28;20025;-61
2023/03/15 04:10:53;;;;;;;7.55;3.75;;;4.80;66.10;;;;;;5057945;28;20604;-61
2023/03/15 04:13:20;;;;;;;11.95;4.28;;;4.80;65.50;;;;;;5057098;28;20052;-61
2023/03/15 04:15:46;;;;;;;12.43;4.13;;;4.80;65.20;;;;;;5069638;28;20029;-61
2023/03/15 04:18:12;;;;;;;11.63;4.30;;;4.80;65.10;;;;;;5064803;28;20025;-61
2023/03/15 04:20:38;;;;;;;8.13;3.58;;;4.80;64.90;;;;;;5053813;28;20085;-61
2023/03/15 04:23:06;;;;;;;11.43;4.20;;;4.80;65.00;;;;;;5061878;28;20032;-61
2023/03/15 04:25:31;;;;;;;8.75;4.28;;;4.80;64.80;;;;;;5063381;28;20079;-61
2023/03/15 04:28:01;;;;;;;10.50;3.50;;;4.80;64.90;;;;;;5067022;28;20487;-62
2023/03/15 04:30:28;;;;;;;5.25;3.22;;;4.80;65.80;;;;;;5061623;28;20047;-61
2023/03/15 04:33:02;;;;;;;8.02;3.33;;;4.70;65.20;;;;;;5064893;28;20499;-61
2023/03/15 04:35:29;;;;;;;9.88;3.92;;;4.80;65.30;;;;;;5065502;28;20067;-62
2023/03/15 04:37:56;;;;;;;7.50;2.88;;;4.70;65.40;;;;;;5063035;28;20033;-61
2023/03/15 04:40:23;;;;;;;10.98;3.42;;;4.80;65.20;;;;;;5064535;28;20021;-61
2023/03/15 04:42:56;;;;;;;8.30;3.00;;;4.80;65.30;;;;;;5069406;28;20047;-63
2023/03/15 04:45:26;;;;;;;7.15;3.53;;;4.80;65.50;;;;;;5072267;28;20032;-62
2023/03/15 04:47:52;;;;;;;8.32;3.75;;;4.80;65.50;;;;;;5058802;28;20107;-62
2023/03/15 04:50:19;;;;;;;10.60;3.28;;;4.80;65.50;;;;;;5071477;28;20032;-62
2023/03/15 04:52:45;;;;;;;7.20;3.38;;;4.90;65.60;;;;;;5069059;28;20036;-62
2023/03/15 04:55:11;;;;;;;10.50;3.08;;;4.90;65.70;;;;;;5073196;28;20082;-63
2023/03/15 04:57:37;;;;;;;11.10;3.60;;;4.90;65.50;;;;;;5064013;28;20341;-62
2023/03/15 05:00:08;;;;;;;7.28;3.10;;;4.90;65.60;;;;;;5069649;28;20032;-62
2023/03/15 05:02:38;;;;;;;8.73;3.38;;;5.00;65.80;;;;;;5058472;28;20032;-62
2023/03/15 05:05:05;;;;;;;11.38;3.67;;;5.00;65.70;;;;;;5062164;28;20464;-62
2023/03/15 05:07:32;;;;;;;9.02;3.42;;;5.10;65.70;;;;;;5062962;28;20096;-62
2023/03/15 05:09:58;;;;;;;7.63;2.90;;;5.10;65.50;;;;;;5062943;28;20092;-62
2023/03/15 05:12:24;;;;;;;6.68;2.63;;;5.10;65.40;;;;;;5070315;28;20036;-62
2023/03/15 05:14:49;;;;;;;6.15;2.90;;;5.10;65.40;;;;;;5066609;28;20017;-63
2023/03/15 05:17:15;;;;;;;11.45;3.45;;;5.10;65.20;;;;;;5064248;28;20120;-62
2023/03/15 05:19:41;;;;;;;7.70;2.90;;;5.10;65.10;;;;;;5064909;28;20033;-62
2023/03/15 05:22:07;;;;;;;9.45;3.38;;;5.10;65.10;;;;;;5068722;28;20537;-62
2023/03/15 05:24:33;;;;;;;10.18;3.30;;;5.10;64.70;;;;;;5070024;28;20021;-60
2023/03/15 05:26:59;;;;;;;9.65;3.58;;;5.10;64.60;;;;;;5068878;28;20383;-61
2023/03/15 05:29:25;;;;;;;8.68;3.03;;;5.00;64.40;;;;;;5061524;28;20070;-61
2023/03/15 05:31:51;;;;;;;7.88;2.80;;;5.00;64.60;;;;;;5065339;28;20017;-61
2023/03/15 05:34:18;;;;;;;10.30;2.67;;;5.00;64.50;;;;;;5059558;28;20037;-61
2023/03/15 05:36:44;;;;;;;7.15;2.45;;;4.90;64.60;;;;;;5058833;28;20032;-61
2023/03/15 05:39:15;;;;;;;5.40;2.78;;;4.90;64.60;;;;;;5062080;28;20513;-61
2023/03/15 05:41:41;;;;;;;9.73;3.10;;;4.90;64.40;;;;;;5060541;28;20143;-61
2023/03/15 05:44:06;;;;;;;7.30;2.70;;;4.90;64.50;;;;;;5061627;28;20072;-60
2023/03/15 05:46:32;;;;;;;9.60;2.97;;;4.90;64.80;;;;;;5061656;28;20040;-62
2023/03/15 05:48:58;;;;;;;8.27;2.85;;;4.90;64.90;;;;;;5068416;28;20021;-62
2023/03/15 05:51:23;;;;;;;11.57;3.03;;;4.90;64.90;;;;;;5065873;28;20044;-60
2023/03/15 05:53:49;;;;;;;10.50;2.65;;;4.90;64.80;;;;;;5070621;28;20081;-61
2023/03/15 05:56:15;;;;;;;9.13;3.22;;;4.90;65.00;;;;;;5059593;28;20551;-61
2023/03/15 05:58:40;;;;;;;7.75;2.78;;;4.90;65.00;;;;;;5070086;28;20074;-61
2023/03/15 06:01:06;;;;;;;7.63;2.40;;;4.90;65.10;;;;;;5061203;28;20122;-63
2023/03/15 06:03:32;;;;;;;8.48;2.40;;;4.90;65.20;;;;;;5067350;28;20036;-61
2023/03/15 06:05:58;;;;;;;5.05;2.15;;;4.90;65.20;;;;;;5062068;28;20025;-61
2023/03/15 06:08:24;;;;;;;8.05;2.58;;;4.90;65.20;;;;;;5069126;28;20072;-61
2023/03/15 06:10:50;;;;;;;6.45;2.38;;;5.00;65.40;;;;;;5070542;28;20029;-62
2023/03/15 06:13:15;;;;;;;8.13;2.50;;;5.00;65.20;;;;;;5069622;28;20029;-61
2023/03/15 06:15:41;;;;;;;4.72;2.40;;;5.00;65.30;;;;;;5068256;28;20044;-61
2023/03/15 06:18:07;;;;;;;5.32;2.03;;;5.00;65.10;;;;;;5059484;28;20028;-61
2023/03/15 06:20:33;;;;;;;7.10;2.58;;;5.00;64.90;;;;;;5066029;28;20029;-60
2023/03/15 06:22:58;;;;;;;9.25;2.08;;;5.00;65.00;;;;;;5059468;28;20029;-60
2023/03/15 06:25:25;;;;;;;4.88;2.20;;;5.10;65.10;;;;;;5068646;28;20024;-61
2023/03/15 06:27:51;;;;;;;10.13;2.65;;;5.10;65.10;;;;;;5068530;28;20028;-61
2023/03/15 06:30:17;;;;;;;8.75;2.38;;;5.10;65.20;;;;;;5072198;28;20021;-62
2023/03/15 06:32:43;;;;;;;9.18;2.97;;;5.10;65.20;;;;;;5024654;28;1149526;-61
2023/03/15 06:35:08;;;;;;;8.02;2.55;;;5.20;65.20;;;;;;5064203;28;20031;-61
2023/03/15 06:37:37;;;;;;;8.68;2.60;;;5.20;65.10;;;;;;5069245;28;20035;-61
2023/03/15 06:40:08;;;;;;;9.10;2.38;;;5.20;64.90;;;;;;5067558;28;20070;-61
2023/03/15 06:42:34;;;;;;;7.32;2.35;;;5.20;64.60;;;;;;5068414;28;20060;-61
2023/03/15 06:45:00;;;;;;;11.05;3.05;;;5.20;64.50;;;;;;5067267;28;20075;-61
2023/03/15 06:47:27;;;;;;;6.70;3.15;;;5.30;64.30;;;;;;5069808;28;20020;-61
2023/03/15 06:49:52;;;;;;;9.90;3.60;;;5.30;64.40;;;;;;5065609;28;20047;-60
2023/03/15 06:52:18;;;;;;;10.95;3.03;;;5.30;64.40;;;;;;5055838;28;20029;-60
2023/03/15 06:54:44;;;;;;;7.22;2.47;;;5.30;65.00;;;;;;5068090;28;20029;-60
2023/03/15 06:57:09;;;;;;;11.30;2.42;;;5.30;64.20;;;;;;5082483;28;20044;-61
2023/03/15 06:59:35;;;;;;;12.32;2.50;;;5.30;64.20;;;;;;5063734;28;20025;-62
2023/03/15 07:02:01;;;;;;;13.25;2.72;;;5.30;64.30;;;;;;5062852;28;20112;-59
2023/03/15 07:04:26;;;;;;;6.95;2.13;;;5.30;64.30;;;;;;5067786;28;20021;-61
2023/03/15 07:06:52;;;;;;;9.23;2.80;;;5.30;64.20;;;;;;5063003;28;20037;-61
2023/03/15 07:09:18;;;;;;;8.30;2.13;;;5.30;64.20;;;;;;5064343;28;20052;-60
2023/03/15 07:11:44;;;;;;;16.23;2.40;;;5.30;64.00;;;;;;5057136;28;20029;-61
2023/03/15 07:14:10;;;;;;;9.10;2.33;;;5.30;64.00;;;;;;5056585;28;20021;-60
2023/03/15 07:16:35;;;;;;;6.90;2.08;;;5.30;64.20;;;;;;5064778;28;20352;-60
2023/03/15 07:19:01;;;;;;;5.97;2.15;;;5.40;64.50;;;;;;5062873;28;20029;-62
2023/03/15 07:21:27;;;;;;;10.52;2.47;;;5.50;64.50;;;;;;5070329;28;20090;-63
2023/03/15 07:23:53;;;;;;;10.65;2.80;;;5.50;64.30;;;;;;5061892;28;20037;-63
2023/03/15 07:26:18;;;;;;;7.30;2.40;;;5.60;64.30;;;;;;5070526;28;20057;-63
2023/03/15 07:28:44;;;;;;;7.93;2.17;;;5.70;64.20;;;;;;5059280;28;20032;-62
2023/03/15 07:31:11;;;;;;;9.00;2.17;;;5.70;63.70;;;;;;5059571;28;20018;-62
2023/03/15 07:33:37;;;;;;;9.32;2.30;;;5.80;63.60;;;;;;5063900;28;20053;-61
2023/03/15 07:36:04;;;;;;;8.70;2.45;;;5.80;63.50;;;;;;5064499;28;20039;-60
2023/03/15 07:38:30;;;;;;;12.80;3.00;;;5.90;63.20;;;;;;5052752;28;20021;-61
2023/03/15 07:40:56;;;;;;;7.65;2.47;;;5.90;63.10;;;;;;5054785;28;20473;-61
2023/03/15 07:43:22;;;;;;;9.05;2.20;;;5.90;63.10;;;;;;5062171;28;20029;-60
2023/03/15 07:45:49;;;;;;;10.63;2.63;;;5.90;63.00;;;;;;5063022;28;20049;-62
2023/03/15 07:48:15;;;;;;;8.52;2.30;;;5.90;62.90;;;;;;5071918;28;20746;-62
2023/03/15 07:50:41;;;;;;;9.23;2.22;;;5.90;62.70;;;;;;5052990;28;20395;-63
2023/03/15 07:53:07;;;;;;;14.38;3.63;;;5.90;62.80;;;;;;5061470;28;20052;-63
2023/03/15 07:55:33;;;;;;;8.32;2.78;;;6.00;62.70;;;;;;5063400;28;20050;-62
2023/03/15 07:57:59;;;;;;;7.50;2.35;;;6.00;62.70;;;;;;5068451;28;20033;-61
2023/03/15 08:00:25;;;;;;;9.43;2.85;;;6.10;62.60;;;;;;5068464;28;20020;-61
2023/03/15 08:02:51;;;;;;;8.00;2.50;;;6.10;62.50;;;;;;5061975;28;20029;-62
2023/03/15 08:05:20;;;;;;;8.75;3.13;;;6.20;62.60;;;;;;5064877;28;20120;-61
2023/03/15 08:07:47;;;;;;;5.65;2.58;;;6.30;62.70;;;;;;5070407;28;20080;-61
2023/03/15 08:10:15;;;;;;;7.63;2.42;;;6.30;62.50;;;;;;5070931;28;20094;-61
2023/03/15 08:12:41;;;;;;;8.38;2.45;;;6.40;62.30;;;;;;5068448;28;20028;-61
2023/03/15 08:15:11;;;;;;;7.63;2.30;;;6.40;62.20;;;;;;5072117;28;20076;-62
2023/03/15 08:17:38;;;;;;;9.20;2.75;;;6.50;62.20;;;;;;5059330;28;20056;-61
2023/03/15 08:20:04;;;;;;;7.40;2.42;;;6.60;62.20;;;;;;5059572;28;20037;-62
2023/03/15 08:22:30;;;;;;;7.45;2.28;;;6.70;62.00;;;;;;5057069;28;20041;-61
2023/03/15 08:24:56;;;;;;;6.95;2.47;;;6.80;62.00;;;;;;5059316;28;20029;-60
2023/03/15 08:27:23;;;;;;;9.63;2.42;;;6.90;61.70;;;;;;5054485;28;20060;-62
2023/03/15 08:29:50;;;;;;;7.35;2.17;;;7.00;61.40;;;;;;5065319;28;20080;-61
2023/03/15 08:32:16;;;;;;;6.28;2.33;;;7.00;61.00;;;;;;5064853;28;20024;-62
2023/03/15 08:34:42;;;;;;;9.35;2.38;;;7.10;60.70;;;;;;5053044;28;20428;-62
2023/03/15 08:37:10;;;;;;;6.57;2.30;;;7.10;60.10;;;;;;5061071;28;20071;-62
2023/03/15 08:39:36;;;;;;;6.03;2.28;;;7.10;60.20;;;;;;5061202;28;20017;-62
2023/03/15 08:42:02;;;;;;;4.97;1.73;;;7.20;60.20;;;;;;5063745;28;20092;-62
2023/03/15 08:44:28;;;;;;;5.10;1.98;;;7.20;60.20;;;;;;5064411;28;20025;-63
2023/03/15 08:46:53;;;;;;;7.40;2.30;;;7.30;59.80;;;;;;5068982;28;20028;-62
2023/03/15 08:49:19;;;;;;;10.15;2.30;;;7.40;59.90;;;;;;5062349;28;20017;-62
2023/03/15 08:51:45;;;;;;;4.25;1.75;;;7.50;59.80;;;;;;5061910;28;20510;-62
2023/03/15 08:54:13;;;;;;;6.35;1.67;;;7.60;59.60;;;;;;5070885;28;20032;-62
2023/03/15 08:56:39;;;;;;;6.70;2.10;;;7.60;58.60;;;;;;5070905;28;20048;-62
2023/03/15 08:59:04;;;;;;;11.75;2.50;;;7.80;59.00;;;;;;5064704;28;20018;-62
2023/03/15 09:01:30;;;;;;;4.95;1.88;;;7.80;58.80;;;;;;5060732;28;20097;-63
2023/03/15 09:03:56;;;;;;;7.95;2.17;;;7.90;58.60;;;;;;5069706;28;20024;-62
2023/03/15 09:06:21;;;;;;;6.30;1.55;;;8.00;57.40;;;;;;5070761;28;20013;-61
2023/03/15 09:08:49;;;;;;;5.60;1.60;;;8.10;58.00;;;;;;5073734;28;20025;-61
2023/03/15 09:11:14;;;;;;;4.72;1.40;;;8.20;57.50;;;;;;5063075;28;20096;-63
2023/03/15 09:13:40;;;;;;;6.55;1.73;;;8.30;57.10;;;;;;5070722;28;20025;-62
2023/03/15 09:16:06;;;;;;;7.47;1.45;;;8.30;56.60;;;;;;5074150;28;20028;-62
2023/03/15 09:18:32;;;;;;;5.35;1.70;;;8.40;56.80;;;;;;5061718;28;20021;-61
2023/03/15 09:20:58;;;;;;;14.50;1.80;;;8.50;56.40;;;;;;5060833;28;20065;-63
2023/03/15 09:23:24;;;;;;;7.00;1.55;;;8.60;56.50;;;;;;5069324;28;20020;-62
2023/03/15 09:25:50;;;;;;;3.88;1.17;;;8.60;56.20;;;;;;5059036;28;20028;-61
2023/03/15 09:28:15;;;;;;;7.68;1.60;;;8.70;55.30;;;;;;5068675;28;20026;-62
2023/03/15 09:30:41;;;;;;;4.15;1.55;;;8.70;54.40;;;;;;5069078;28;20100;-61
2023/03/15 09:33:08;;;;;;;9.73;2.13;;;8.70;54.50;;;;;;5068660;28;20048;-61
2023/03/15 09:35:33;;;;;;;6.40;1.50;;;8.80;54.70;;;;;;5070943;28;20036;-61
2023/03/15 09:37:59;;;;;;;5.15;1.48;;;8.80;54.70;;;;;;5074044;28;20031;-62
2023/03/15 09:40:27;;;;;;;3.53;1.13;;;8.80;54.30;;;;;;5067624;28;20029;-62
2023/03/15 09:43:06;;;;;;;10.85;1.85;;;8.80;54.20;;;;;;5063263;28;20522;-62
2023/03/15 09:45:53;;;;;;;6.05;1.35;;;8.90;54.80;;;;;;5058756;28;20042;-62
2023/03/15 09:48:34;;;;;;;5.15;1.55;;;9.00;54.20;;;;;;5070942;28;20407;-62
2023/03/15 09:51:06;;;;;;;7.40;3.13;;;9.00;54.00;;;;;;5065586;28;20045;-61
2023/03/15 09:53:40;;;;;;;5.22;2.20;;;9.00;54.00;;;;;;5057914;28;20103;-60
2023/03/15 09:56:23;;;;;;;7.70;1.77;;;9.10;53.30;;;;;;5066241;28;20041;-61
2023/03/15 09:58:52;;;;;;;4.85;1.52;;;9.20;53.40;;;;;;5066527;28;20040;-60
2023/03/15 10:01:24;;;;;;;5.75;1.33;;;9.30;53.40;;;;;;5057050;28;20044;-61
2023/03/15 10:03:52;;;;;;;4.85;1.45;;;9.40;53.20;;;;;;5072150;28;20052;-61
2023/03/15 10:06:23;;;;;;;5.38;1.30;;;9.50;52.80;;;;;;5064308;28;20028;-60
2023/03/15 10:08:52;;;;;;;5.95;1.50;;;9.50;52.00;;;;;;5068059;28;20391;-63
2023/03/15 10:11:28;;;;;;;5.07;1.23;;;9.50;52.00;;;;;;5062843;28;20017;-62
2023/03/15 10:14:25;;;;;;;7.65;1.45;;;9.50;50.70;;;;;;5099369;28;20617;-61
2023/03/15 10:16:51;;;;;;;4.95;1.42;;;9.50;49.50;;;;;;5063395;28;20056;-61
2023/03/15 10:19:49;;;;;;;8.35;1.80;;;9.40;48.80;;;;;;5066040;28;20076;-61
2023/03/15 10:22:20;;;;;;;6.10;1.83;;;9.30;49.10;;;;;;5064232;28;20043;-63
2023/03/15 10:24:52;;;;;;;4.60;1.42;;;9.30;50.30;;;;;;5068463;28;20035;-60
2023/03/15 10:27:42;;;;;;;2.90;1.40;;;9.30;50.90;;;;;;5061783;28;20029;-60
2023/03/15 10:30:15;;;;;;;3.88;1.35;;;9.40;51.00;;;;;;5067338;28;20025;-60
2023/03/15 10:32:43;;;;;;;4.28;1.40;;;9.40;50.70;;;;;;5062132;28;20041;-61
2023/03/15 10:35:19;;;;;;;8.48;2.47;;;9.40;49.90;;;;;;5069319;28;20025;-61
2023/03/15 10:37:44;;;;;;;8.75;1.75;;;9.40;50.10;;;;;;5057289;28;20040;-62
2023/03/15 10:40:15;;;;;;;4.68;1.50;;;9.40;50.80;;;;;;5069084;28;20037;-61
2023/03/15 10:42:45;;;;;;;4.70;1.40;;;9.40;49.70;;;;;;5059253;28;20052;-61
2023/03/15 10:45:23;;;;;;;6.47;1.52;;;9.40;50.20;;;;;;5067324;28;20342;-61
2023/03/15 10:47:50;;;;;;;8.23;2.03;;;9.40;50.10;;;;;;5067413;28;20037;-60
2023/03/15 10:50:31;;;;;;;7.03;1.80;;;9.50;49.90;;;;;;5065589;28;20097;-61
2023/03/15 10:53:00;;;;;;;5.28;1.40;;;9.60;49.40;;;;;;5062696;28;20025;-60
2023/03/15 10:55:32;;;;;;;7.63;1.55;;;9.70;50.50;;;;;;5058621;28;20021;-60
2023/03/15 10:58:13;;;;;;;3.95;1.60;;;9.80;49.80;;;;;;5058008;28;20037;-61
2023/03/15 11:00:49;;;;;;;5.43;1.50;;;9.90;50.00;;;;;;5062000;28;20468;-61
2023/03/15 11:03:19;;;;;;;5.18;1.23;;;10.00;49.90;;;;;;5064745;28;20029;-61
2023/03/15 11:05:50;;;;;;;4.88;1.60;;;10.20;50.20;;;;;;5060594;28;20089;-61
2023/03/15 11:08:19;;;;;;;6.88;1.50;;;10.30;49.90;;;;;;5056047;28;20017;-62
2023/03/15 11:10:57;;;;;;;5.07;1.40;;;10.50;49.70;;;;;;5067809;28;20077;-61
2023/03/15 11:13:28;;;;;;;3.83;1.30;;;10.60;49.60;;;;;;5057613;28;20084;-61
2023/03/15 11:16:12;;;;;;;6.20;1.20;;;10.70;49.30;;;;;;5068485;28;20021;-60
2023/03/15 11:18:52;;;;;;;4.07;1.45;;;10.80;48.60;;;;;;5072099;28;20032;-62
2023/03/15 11:21:21;;;;;;;8.27;1.45;;;10.90;49.20;;;;;;5098936;28;20033;-61
2023/03/15 11:23:49;;;;;;;5.10;1.60;;;11.00;49.50;;;;;;5058232;28;20418;-61
2023/03/15 11:26:24;;;;;;;5.50;1.30;;;11.10;49.70;;;;;;5066140;28;20146;-61
2023/03/15 11:28:54;;;;;;;4.70;1.55;;;11.30;48.50;;;;;;5064266;28;20017;-61
2023/03/15 11:31:23;;;;;;;5.20;1.25;;;11.40;48.40;;;;;;5064897;28;20031;-61
2023/03/15 11:33:57;;;;;;;4.80;1.27;;;11.40;48.00;;;;;;5064730;28;20049;-61
2023/03/15 11:36:26;;;;;;;3.05;1.33;;;11.40;47.50;;;;;;5060169;28;20033;-62
2023/03/15 11:38:54;;;;;;;3.42;1.20;;;11.40;47.70;;;;;;5059493;28;20052;-62
2023/03/15 11:41:35;;;;;;;7.07;1.30;;;11.30;47.20;;;;;;5072172;28;20487;-63
2023/03/15 11:44:21;;;;;;;2.97;1.10;;;11.20;46.50;;;;;;5075613;28;20036;-62
2023/03/15 11:47:20;;;;;;;4.70;1.40;;;11.20;47.00;;;;;;5071530;28;20033;-62
2023/03/15 11:49:52;;;;;;;4.93;1.27;;;11.30;46.80;;;;;;5065791;28;20047;-63
2023/03/15 11:52:21;;;;;;;4.10;1.13;;;11.30;47.20;;;;;;5064974;28;20069;-62
2023/03/15 11:54:48;;;;;;;1.70;1.05;;;11.30;47.80;;;;;;5067357;28;20040;-60
2023/03/15 11:57:58;;;;;;;6.63;1.60;;;11.40;48.10;;;;;;5076567;28;20054;-62
2023/03/15 12:00:33;;;;;;;4.65;1.60;;;11.40;45.60;;;;;;5065765;28;20037;-62
2023/03/15 12:03:23;;;;;;;3.10;1.30;;;11.40;46.50;;;;;;5068429;28;20055;-62
2023/03/15 12:05:57;;;;;;;5.68;1.88;;;11.40;45.00;;;;;;5061050;28;20037;-61
2023/03/15 12:08:44;;;;;;;9.07;2.58;;;11.40;46.90;;;;;;5068873;28;20032;-61
2023/03/15 12:11:29;;;;;;;9.65;3.05;;;11.30;45.70;;;;;;5064745;28;20089;-61
2023/03/15 12:13:58;;;;;;;7.00;2.25;;;11.20;45.30;;;;;;5068298;28;20037;-62
2023/03/15 12:16:40;;;;;;;3.40;1.25;;;11.10;46.40;;;;;;5069408;28;20024;-62
2023/03/15 12:19:20;;;;;;;1.30;1.00;;;11.00;46.60;;;;;;5065891;28;20048;-61
2023/03/15 12:21:47;;;;;;;4.65;1.42;;;11.00;46.80;;;;;;5060893;28;20064;-62
2023/03/15 12:24:36;;;;;;;4.90;1.73;;;11.00;47.20;;;;;;5072346;28;20021;-61
2023/03/15 12:27:15;;;;;;;6.53;2.00;;;11.00;44.60;;;;;;5063255;28;20043;-61
2023/03/15 12:29:44;;;;;;;3.42;1.25;;;10.90;46.30;;;;;;5056161;28;20144;-61
2023/03/15 12:32:19;;;;;;;1.55;0.93;;;10.90;47.00;;;;;;5053667;28;20018;-63
2023/03/15 12:34:56;;;;;;;3.58;1.10;;;10.90;46.90;;;;;;5063755;28;20098;-62
2023/03/15 12:37:38;;;;;;;2.67;1.20;;;11.00;47.50;;;;;;5061436;28;20029;-61
2023/03/15 12:40:17;;;;;;;6.75;2.28;;;11.00;47.80;;;;;;5064319;28;20172;-60
2023/03/15 12:42:43;;;;;;;9.20;2.33;;;11.00;45.00;;;;;;5066079;28;20024;-61
2023/03/15 12:45:15;;;;;;;8.18;1.38;;;11.00;46.30;;;;;;5068467;28;20475;-60
2023/03/15 12:47:50;;;;;;;9.48;1.75;;;10.80;46.10;;;;;;5065159;28;20106;-61
2023/03/15 12:50:34;;;;;;;6.07;2.67;;;10.70;46.20;;;;;;5070259;28;20032;-62
2023/03/15 12:53:02;;;;;;;7.93;1.80;;;10.60;45.90;;;;;;5059155;28;20103;-61
2023/03/15 12:55:31;;;;;;;3.53;1.42;;;10.50;47.10;;;;;;5055560;28;20040;-61
2023/03/15 12:57:59;;;;;;;2.53;1.38;;;10.40;46.70;;;;;;5065297;28;20028;-61
2023/03/15 13:00:27;;;;;;;4.10;1.38;;;10.30;46.60;;;;;;5075800;28;20029;-64
2023/03/15 13:03:02;;;;;;;6.07;2.28;;;10.20;46.70;;;;;;5057579;28;20127;-62
2023/03/15 13:05:48;;;;;;;2.90;1.42;;;10.20;46.80;;;;;;5065033;28;20021;-62